TJSJTDCF

Guest
Details From TJSJ - San Juan - Luis Munoz Marin Intl
To TDCF - Dominica/Canefield
Flight Number -
Tags generated
Created
Modified
Stats Distance 327 nm / 606 km
Max Altitude 35,000 ft / 10,668 m
Waypoints 6
Social Downloads 1
Likes 0
Share VATSIM

Download

Looking for another format? Having issues loading an existing format? Contact us
Advertisement - Login to hide

Notes

Basic altitude profile: - Ascent Rate: 2500ft/min - Ascent Speed: 250kts - Cruise Altitude: 35000ft - Cruise Speed: 420kts - Descent Rate: 1500ft/min - Descent Speed: 250kts Options: - Use NATs: yes - Use PACOTS: yes - Use low airways: yes - Use high airways: yes

Route

TJSJ COY A555 DUNTA TDCF

ID Type Via Altitude Latitude Longitude Leg Dist Tot Dist Heading (true) Name
O TJSJ APT - 0 ft / 0 m 18.43878˚ -66.00202˚ - 0 nm - San Juan - Luis Munoz Marin Intl
COY VOR - 29,500 ft / 8,992 m 17.73444˚ -64.70072˚ 85 nm 85 nm 119° / 120° ST CROIX VOR-DME
PORQE FIX A555 (AWY-HI) 35,000 ft / 10,668 m 17.15999˚ -64.01449˚ 52 nm 137 nm 131° / 131° -
ILURI FIX A555 (AWY-HI) 23,900 ft / 7,285 m 16.30000˚ -63.00000˚ 77 nm 215 nm 131° / 132° -
DUNTA FIX A555 (AWY-LO) 9,500 ft / 2,896 m 15.60889˚ -62.19306˚ 62 nm 278 nm 132° / 132° -
O TDCF APT - 0 ft / 0 m 15.33672˚ -61.39221˚ 49 nm 327 nm 109° / 110° Dominica/Canefield

Altitude Profile

Advertisement - Login to hide

Weather


0- 5 10 15 20 25 30 35+ Temperature / ° C

Clouds and Precipitation
Forecast for 2018-05-20 12:00 UTC. Updated an hour ago

Ground ~20,000 ft ~40,000 ft Winds

TJSJ

Details ICAO TJSJ (SJU)
Name San Juan - Luis Munoz Marin Intl
Region USA (Puerto Rico)
Timezone America/Puerto_Rico (UTC-4.0)
Stats Elevation 9 ft / 3 m (AMSL)
Location 18.438777° -66.002018°
Runways 2
Magnetic Variation 13.241° W

METAR

TJSJ 201156Z 09012KT 10SM FEW022 SCT029 SCT060 27/23 A3006

Decode

TAF

TJSJ 201132Z 2012/2112 11010KT P6SM FEW025 SCT040 FM201400 08018G28KT P6SM VCSH FEW025 SCT050 FM202300 11010KT P6SM SCT025

Decode

Departure Runways

ID Width Length Bearing (true) Bearing (mag) Surface Threshold Offset Overrun Length
08 200 ft / 61 m 9,781 ft / 2,981 m 66.87° 80.11° Asphalt 0 ft / 0 m 200 ft / 61 m
10 151 ft / 46 m 8,007 ft / 2,440 m 90.14° 103.38° Concrete 0 ft / 0 m 200 ft / 61 m
26 200 ft / 61 m 9,781 ft / 2,981 m 246.88° 260.12° Asphalt 0 ft / 0 m 230 ft / 70 m
28 151 ft / 46 m 8,007 ft / 2,440 m 270.15° 283.39° Concrete 0 ft / 0 m 200 ft / 61 m

TDCF

Details ICAO TDCF (DCF)
Name Dominica/Canefield
Region Dominica
Timezone America/Dominica (UTC-4.0)
Stats Elevation 13 ft / 4 m (AMSL)
Location 15.336718° -61.392211°
Runways 1
Magnetic Variation 14.925° W

METAR

TDCF 201200Z 06006KT 9999 SCT016 28/20 Q1015

Decode

TAF

Not found

Destination Runways

ID Width Length Bearing (true) Bearing (mag) Surface Threshold Offset Overrun Length
01 75 ft / 23 m 3,152 ft / 961 m 356.38° 11.31° Asphalt 476 ft / 145 m 0 ft / 0 m
19 75 ft / 23 m 3,152 ft / 961 m 176.38° 191.31° Asphalt 0 ft / 0 m 0 ft / 0 m